createdAt,value
2023-05-11T00:03:29.569Z,3.13
2023-05-11T00:07:11.787Z,3.10
2023-05-11T00:10:53.763Z,2.75
2023-05-11T00:14:36.007Z,2.80
2023-05-11T00:18:17.859Z,2.72
2023-05-11T00:21:59.823Z,3.15
2023-05-11T00:25:41.693Z,2.42
2023-05-11T00:29:23.803Z,2.90
2023-05-11T00:33:06.205Z,2.60
2023-05-11T00:36:49.643Z,2.72
2023-05-11T00:40:32.320Z,3.30
2023-05-11T00:44:14.167Z,3.50
2023-05-11T00:47:56.846Z,2.97
2023-05-11T00:51:39.405Z,3.45
2023-05-11T00:55:21.863Z,2.85
2023-05-11T00:59:03.962Z,2.90
2023-05-11T01:02:46.294Z,2.60
2023-05-11T01:06:35.836Z,2.85
2023-05-11T01:10:32.377Z,3.00
2023-05-11T01:14:20.404Z,2.60
2023-05-11T01:21:52.536Z,3.20
2023-05-11T01:26:06.476Z,3.45
2023-05-11T01:30:23.392Z,4.00
2023-05-11T01:34:12.526Z,2.97
2023-05-11T01:37:58.506Z,4.63
2023-05-11T01:41:41.994Z,3.08
2023-05-11T01:45:26.978Z,3.88
2023-05-11T01:49:10.244Z,3.05
2023-05-11T01:52:53.740Z,3.05
2023-05-11T01:56:38.021Z,3.20
2023-05-11T02:00:21.226Z,3.30
2023-05-11T02:04:04.941Z,3.10
2023-05-11T02:07:49.227Z,3.03
2023-05-11T02:11:32.265Z,3.00
2023-05-11T02:15:16.223Z,3.60
2023-05-11T02:18:58.893Z,2.88
2023-05-11T02:22:42.923Z,3.50
2023-05-11T02:26:24.798Z,2.67
2023-05-11T02:30:08.567Z,3.30
2023-05-11T02:33:53.627Z,3.08
2023-05-11T02:37:41.650Z,3.35
2023-05-11T02:45:11.308Z,3.22
2023-05-11T02:48:57.757Z,3.30
2023-05-11T02:52:46.651Z,3.17
2023-05-11T02:56:29.665Z,3.47
2023-05-11T03:00:12.181Z,3.45
2023-05-11T03:03:54.364Z,3.58
2023-05-11T03:07:36.646Z,3.45
2023-05-11T03:11:19.673Z,3.40
2023-05-11T03:15:03.633Z,3.20
2023-05-11T03:18:46.147Z,3.08
2023-05-11T03:22:28.230Z,3.13
2023-05-11T03:26:11.761Z,3.35
2023-05-11T03:29:55.376Z,2.95
2023-05-11T03:33:37.206Z,3.50
2023-05-11T03:37:20.400Z,3.28
2023-05-11T03:41:02.294Z,3.50
2023-05-11T03:44:48.269Z,3.50
2023-05-11T03:48:32.180Z,3.47
2023-05-11T03:52:14.873Z,3.25
2023-05-11T03:55:57.242Z,3.72
2023-05-11T03:59:42.353Z,3.03
2023-05-11T04:03:24.269Z,3.05
2023-05-11T04:07:06.262Z,3.35
2023-05-11T04:10:47.972Z,3.28
2023-05-11T04:14:29.693Z,2.97
2023-05-11T04:18:11.550Z,3.45
2023-05-11T04:21:53.330Z,3.50
2023-05-11T04:25:35.064Z,3.05
2023-05-11T04:29:16.767Z,2.78
2023-05-11T04:32:58.498Z,3.50
2023-05-11T04:36:40.286Z,3.25
2023-05-11T04:40:22.023Z,3.35
2023-05-11T04:44:03.839Z,2.70
2023-05-11T04:47:45.576Z,3.28
2023-05-11T04:51:27.328Z,3.67
2023-05-11T04:55:09.263Z,2.72
2023-05-11T04:58:51.010Z,3.20
2023-05-11T05:02:32.854Z,2.80
2023-05-11T05:06:14.611Z,3.13
2023-05-11T05:09:56.381Z,3.40
2023-05-11T05:13:38.222Z,2.83
2023-05-11T05:17:19.921Z,2.90
2023-05-11T05:21:01.778Z,4.20
2023-05-11T05:24:43.541Z,3.97
2023-05-11T05:28:25.332Z,3.72
2023-05-11T05:32:07.133Z,2.95
2023-05-11T05:35:48.897Z,3.33
2023-05-11T05:39:30.772Z,3.17
2023-05-11T05:43:12.536Z,3.45
2023-05-11T05:46:54.436Z,3.17
2023-05-11T05:50:36.223Z,3.17
2023-05-11T05:54:18.069Z,3.25
2023-05-11T05:57:59.862Z,3.05
2023-05-11T06:01:45.700Z,3.22
2023-05-11T06:05:27.633Z,2.88
2023-05-11T06:09:09.395Z,4.05
2023-05-11T06:12:51.167Z,4.28
2023-05-11T06:16:33.040Z,3.28
2023-05-11T06:20:14.932Z,3.08
2023-05-11T06:23:56.855Z,3.35
2023-05-11T06:27:38.609Z,2.97
2023-05-11T06:31:20.535Z,3.40
2023-05-11T06:35:02.606Z,3.47
2023-05-11T06:38:44.404Z,3.38
2023-05-11T06:42:26.158Z,3.20
2023-05-11T06:46:07.988Z,3.35
2023-05-11T06:49:49.745Z,3.75
2023-05-11T06:53:31.510Z,3.50
2023-05-11T06:57:14.567Z,4.00
2023-05-11T07:00:56.702Z,5.40
2023-05-11T07:04:38.532Z,7.78
2023-05-11T07:08:20.404Z,5.93
2023-05-11T07:12:03.091Z,6.72
2023-05-11T07:15:45.004Z,5.40
2023-05-11T07:19:27.208Z,5.68
2023-05-11T07:23:09.031Z,5.53
2023-05-11T07:26:51.930Z,5.07
2023-05-11T07:30:33.707Z,5.00
2023-05-11T07:34:16.224Z,4.57
2023-05-11T07:37:58.001Z,4.68
2023-05-11T07:41:39.758Z,5.28
2023-05-11T07:45:21.578Z,6.03
2023-05-11T07:49:15.827Z,4.57
2023-05-11T07:53:00.527Z,5.85
2023-05-11T07:56:42.271Z,5.85
2023-05-11T08:00:24.213Z,5.55
2023-05-11T08:04:06.038Z,5.90
2023-05-11T08:07:47.811Z,5.20
2023-05-11T08:11:29.571Z,5.80
2023-05-11T08:15:12.070Z,6.35
2023-05-11T08:18:53.848Z,5.20
2023-05-11T08:22:35.731Z,5.30
2023-05-11T08:26:17.492Z,5.47
2023-05-11T08:30:02.740Z,4.75
2023-05-11T08:33:44.987Z,5.35
2023-05-11T08:37:26.914Z,5.18
2023-05-11T08:41:14.474Z,5.47
2023-05-11T08:44:58.192Z,5.32
2023-05-11T08:48:40.804Z,5.93
2023-05-11T08:52:22.905Z,6.22
2023-05-11T08:56:08.476Z,6.10
2023-05-11T08:59:52.037Z,5.82
2023-05-11T09:03:36.825Z,6.15
2023-05-11T09:07:19.614Z,5.60
2023-05-11T09:11:01.800Z,5.30
2023-05-11T09:14:43.888Z,4.53
2023-05-11T09:18:26.435Z,4.57
2023-05-11T09:22:08.387Z,4.60
2023-05-11T09:25:50.242Z,3.38
2023-05-11T09:29:32.171Z,2.15
2023-05-11T09:33:24.975Z,2.45
2023-05-11T09:37:19.189Z,2.10
2023-05-11T09:41:03.279Z,2.85
2023-05-11T09:44:46.567Z,2.20
2023-05-11T09:48:31.721Z,2.47
2023-05-11T09:52:26.503Z,1.95
2023-05-11T09:56:08.814Z,2.35
2023-05-11T09:59:51.212Z,2.28
2023-05-11T10:03:33.406Z,2.55
2023-05-11T10:07:25.026Z,2.05
2023-05-11T10:11:08.622Z,2.42
2023-05-11T10:14:52.938Z,2.17
2023-05-11T10:18:37.073Z,1.90
2023-05-11T10:22:19.007Z,1.90
2023-05-11T10:26:01.517Z,1.50
2023-05-11T10:29:44.674Z,1.20
2023-05-11T10:33:27.083Z,1.30
2023-05-11T10:37:09.472Z,1.55
2023-05-11T10:40:52.997Z,1.60
2023-05-11T10:44:56.141Z,1.50
2023-05-11T10:48:51.277Z,1.60
2023-05-11T10:52:54.520Z,1.67
2023-05-11T10:57:14.044Z,1.10
2023-05-11T11:01:18.702Z,1.10
2023-05-11T11:05:05.607Z,1.17
2023-05-11T11:09:03.480Z,1.50
2023-05-11T11:13:02.927Z,1.30
2023-05-11T11:17:18.804Z,1.45
2023-05-11T11:21:01.595Z,1.33
2023-05-11T11:24:45.655Z,1.30
2023-05-11T11:28:28.276Z,1.35
2023-05-11T11:32:24.903Z,1.30
2023-05-11T11:36:06.835Z,1.40
2023-05-11T11:39:50.976Z,1.30
2023-05-11T11:43:45.716Z,1.80
2023-05-11T11:47:27.587Z,1.40
2023-05-11T11:51:13.820Z,1.40
2023-05-11T11:54:57.216Z,1.20
2023-05-11T11:58:41.893Z,1.55
2023-05-11T12:02:24.473Z,1.40
2023-05-11T12:06:08.056Z,1.05
2023-05-11T12:09:50.339Z,1.05
2023-05-11T12:13:33.085Z,1.20
2023-05-11T12:17:22.950Z,1.30
2023-05-11T12:21:05.337Z,0.95
2023-05-11T12:24:47.107Z,1.35
2023-05-11T12:28:28.970Z,1.10
2023-05-11T12:32:14.008Z,1.38
2023-05-11T12:35:57.227Z,1.30
2023-05-11T12:39:39.636Z,0.98
2023-05-11T12:43:23.000Z,1.40
2023-05-11T12:47:06.169Z,1.20
2023-05-11T12:50:47.960Z,1.10
2023-05-11T12:54:38.157Z,1.10
2023-05-11T12:58:20.023Z,2.00
2023-05-11T13:02:06.911Z,1.27
2023-05-11T13:05:48.894Z,0.97
2023-05-11T13:09:31.077Z,1.33
2023-05-11T13:13:25.438Z,1.20
2023-05-11T13:17:07.536Z,1.40
2023-05-11T13:21:04.275Z,1.17
2023-05-11T13:24:46.039Z,1.40
2023-05-11T13:28:27.837Z,1.20
2023-05-11T13:32:09.655Z,1.13
2023-05-11T13:35:51.549Z,1.50
2023-05-11T13:39:33.368Z,1.27
2023-05-11T13:43:15.322Z,1.00
2023-05-11T13:46:57.278Z,1.05
2023-05-11T13:50:39.058Z,0.98
2023-05-11T13:54:21.648Z,1.13
2023-05-11T13:58:03.572Z,0.98
2023-05-11T14:01:45.535Z,0.82
2023-05-11T14:05:27.780Z,0.77
2023-05-11T14:09:09.588Z,0.95
2023-05-11T14:12:51.461Z,0.90
2023-05-11T14:16:33.290Z,0.70
2023-05-11T14:20:15.709Z,1.00
2023-05-11T14:24:10.794Z,0.90
2023-05-11T14:27:56.734Z,1.00
2023-05-11T14:31:38.635Z,1.10
2023-05-11T14:35:21.377Z,0.77
2023-05-11T14:39:03.439Z,0.60
2023-05-11T14:42:45.305Z,0.82
2023-05-11T14:46:27.674Z,0.85
2023-05-11T14:50:10.166Z,1.08
2023-05-11T14:53:52.354Z,1.00
2023-05-11T14:57:34.171Z,0.93
2023-05-11T15:01:16.536Z,1.00
2023-05-11T15:04:58.322Z,0.80
2023-05-11T15:08:40.082Z,0.80
2023-05-11T15:12:21.926Z,0.93
2023-05-11T15:16:04.123Z,0.95
2023-05-11T15:19:46.042Z,0.75
2023-05-11T15:23:27.871Z,0.98
2023-05-11T15:27:09.653Z,1.23
2023-05-11T15:30:51.752Z,0.77
2023-05-11T15:34:34.035Z,1.20
2023-05-11T15:38:18.816Z,0.77
2023-05-11T15:42:00.581Z,0.82
2023-05-11T15:45:42.369Z,0.93
2023-05-11T15:49:24.092Z,1.00
2023-05-11T15:53:05.796Z,0.98
2023-05-11T15:56:47.531Z,1.25
2023-05-11T16:00:29.363Z,1.17
2023-05-11T16:04:11.479Z,1.20
2023-05-11T16:07:53.369Z,1.05
2023-05-11T16:11:35.098Z,1.10
2023-05-11T16:15:16.934Z,1.25
2023-05-11T16:18:59.459Z,1.10
2023-05-11T16:22:41.219Z,1.08
2023-05-11T16:26:23.250Z,1.00
2023-05-11T16:30:17.956Z,0.93
2023-05-11T16:34:03.824Z,0.80
2023-05-11T16:37:47.758Z,0.90
2023-05-11T16:41:29.815Z,0.80
2023-05-11T16:45:12.829Z,0.82
2023-05-11T16:48:55.767Z,0.85
2023-05-11T16:52:38.414Z,0.82
2023-05-11T16:56:20.605Z,0.80
2023-05-11T17:00:02.712Z,1.17
2023-05-11T17:03:44.629Z,1.00
2023-05-11T17:07:26.785Z,0.90
2023-05-11T17:11:08.736Z,0.80
2023-05-11T17:14:50.466Z,1.00
2023-05-11T17:18:32.298Z,1.42
2023-05-11T17:22:14.369Z,0.95
2023-05-11T17:25:56.143Z,1.30
2023-05-11T17:29:37.910Z,1.10
2023-05-11T17:33:20.118Z,1.23
2023-05-11T17:37:01.993Z,1.30
2023-05-11T17:40:44.955Z,1.20
2023-05-11T17:44:27.026Z,1.30
2023-05-11T17:48:08.836Z,1.50
2023-05-11T17:51:50.556Z,1.77
2023-05-11T17:55:32.295Z,1.50
2023-05-11T17:59:14.048Z,1.90
2023-05-11T18:02:55.883Z,1.77
2023-05-11T18:06:37.782Z,1.55
2023-05-11T18:10:19.663Z,2.10
2023-05-11T18:14:01.610Z,1.95
2023-05-11T18:17:43.469Z,2.00
2023-05-11T18:21:27.345Z,2.10
2023-05-11T18:25:09.568Z,2.10
2023-05-11T18:28:51.446Z,2.13
2023-05-11T18:32:33.223Z,2.05
2023-05-11T18:36:15.787Z,2.42
2023-05-11T18:39:57.671Z,2.42
2023-05-11T18:43:39.466Z,2.55
2023-05-11T18:47:23.098Z,2.30
2023-05-11T18:51:05.236Z,2.30
2023-05-11T18:54:46.977Z,2.13
2023-05-11T18:58:28.767Z,2.38
2023-05-11T19:02:10.556Z,2.75
2023-05-11T19:05:52.341Z,2.60
2023-05-11T19:09:35.119Z,2.60
2023-05-11T19:13:17.118Z,2.58
2023-05-11T19:16:59.068Z,2.60
2023-05-11T19:20:41.164Z,2.60
2023-05-11T19:24:22.958Z,2.55
2023-05-11T19:28:04.812Z,2.63
2023-05-11T19:31:46.967Z,2.55
2023-05-11T19:35:29.035Z,2.45
2023-05-11T19:39:10.822Z,2.42
2023-05-11T19:42:52.613Z,2.85
2023-05-11T19:46:34.489Z,2.60
2023-05-11T19:50:18.285Z,2.30
2023-05-11T19:54:01.067Z,2.55
2023-05-11T19:57:42.787Z,2.40
2023-05-11T20:01:24.895Z,2.50
2023-05-11T20:05:07.480Z,2.97
2023-05-11T20:08:51.547Z,5.55
2023-05-11T20:12:33.402Z,5.30
2023-05-11T20:16:15.309Z,4.75
2023-05-11T20:19:57.282Z,3.55
2023-05-11T20:23:40.282Z,1.83
2023-05-11T20:27:22.247Z,1.70
2023-05-11T20:31:04.079Z,1.38
2023-05-11T20:34:45.811Z,1.42
2023-05-11T20:38:27.588Z,1.40
2023-05-11T20:42:09.348Z,2.78
2023-05-11T20:45:51.937Z,2.22
2023-05-11T20:49:38.775Z,1.13
2023-05-11T20:53:21.040Z,1.07
2023-05-11T20:57:08.277Z,1.40
2023-05-11T21:00:50.334Z,1.10
2023-05-11T21:04:32.182Z,1.38
2023-05-11T21:08:15.063Z,1.15
2023-05-11T21:11:56.912Z,1.30
2023-05-11T21:15:38.711Z,1.23
2023-05-11T21:19:20.508Z,1.30
2023-05-11T21:23:02.354Z,1.48
2023-05-11T21:26:47.985Z,1.27
2023-05-11T21:30:30.307Z,1.15
2023-05-11T21:34:12.366Z,1.10
2023-05-11T21:37:54.185Z,1.92
2023-05-11T21:41:35.998Z,1.48
2023-05-11T21:45:19.785Z,0.88
2023-05-11T21:49:01.915Z,1.80
2023-05-11T21:52:43.803Z,1.25
2023-05-11T21:56:25.647Z,1.00
2023-05-11T22:00:09.490Z,1.00
2023-05-11T22:03:51.431Z,1.27
2023-05-11T22:07:33.251Z,1.35
2023-05-11T22:11:15.028Z,1.10
2023-05-11T22:14:57.109Z,1.00
2023-05-11T22:18:38.975Z,1.10
2023-05-11T22:22:20.854Z,1.10
2023-05-11T22:26:03.807Z,0.95
2023-05-11T22:29:45.570Z,1.77
2023-05-11T22:33:27.387Z,1.10
2023-05-11T22:37:09.142Z,1.00
2023-05-11T22:40:50.948Z,1.40
2023-05-11T22:44:32.696Z,1.17
2023-05-11T22:48:14.425Z,1.30
2023-05-11T22:51:58.727Z,1.30
2023-05-11T22:55:41.385Z,1.50
2023-05-11T22:59:23.465Z,1.20
2023-05-11T23:03:05.508Z,1.60
2023-05-11T23:06:47.528Z,1.77
2023-05-11T23:10:29.406Z,1.83
2023-05-11T23:14:11.107Z,2.00
2023-05-11T23:17:52.963Z,1.67
2023-05-11T23:21:34.716Z,2.30
2023-05-11T23:25:16.941Z,1.73
2023-05-11T23:28:58.841Z,1.23
2023-05-11T23:32:40.846Z,1.15
2023-05-11T23:36:22.975Z,1.35
2023-05-11T23:40:07.352Z,1.30
2023-05-11T23:43:49.246Z,1.35
2023-05-11T23:47:31.926Z,1.40
2023-05-11T23:51:14.209Z,1.50
2023-05-11T23:54:55.887Z,1.60
2023-05-11T23:58:37.924Z,1.77
